• Join FlightAware (Why Join?)
  • Login
  • US Flag 
11:37AM EST


 

Airport Tracker/Info


-or-


 

Live Flight TrackerFlight Track Log ✈ SKW4968 ✈ 09-Jul-2013 ✈ KIAH - KAUS

Flight Track Log - Related Links

Times and Time Zones

All times are in EDT time to prevent confusion due to time zone crossing. See the SKW4968 flight status page for this flight to view local times or setup timezone preferences in your user account.

Time Position Orientation Groundspeed Altitude Reporting Facility
EDT Latitude Longitude Course Direction KTS MPH feet Rate Location/Type
09:48AM 29.9578 -95.3464 261° West 161 185 1,000  Level Houston Center
09:49AM 29.9475 -95.4175 261° West 251 289 3,300 1,560 Climbing Houston Center
09:50AM 29.9536 -95.4650 278° West 251 289 4,000 1,500 Climbing Houston Center
09:51AM 29.9606 -95.5492 275° West 263 303 5,900 2,160 Climbing Houston Center
09:52AM 29.9569 -95.6400 267° West 280 322 8,600 2,460 Climbing Houston Center
09:53AM 29.9517 -95.7581 267° West 306 352 11,000 2,160 Climbing Houston Center
09:54AM 29.9489 -95.8700 268° West 347 399 13,100 2,100 Climbing Houston Center
09:55AM 29.9442 -95.9850 267° West 359 413 15,400 1,980 Climbing Houston Center
09:56AM 29.9397 -96.1175 268° West 371 427 17,300 1,680 Climbing Houston Center
09:57AM 29.9461 -96.2411 273° West 393 452 18,900 1,260 Climbing Houston Center
09:58AM 29.9664 -96.3675 281° West 403 464 20,000 240 Climbing Houston Center
09:59AM 29.9883 -96.4983 281° West 419 482 19,400 -1,560 Descending Houston Center
10:00AM 30.0097 -96.6264 281° West 412 474 16,800 -2,880 Descending Houston Center
10:01AM 30.0336 -96.7728 281° West 391 450 13,500 -2,340 Descending Houston Center
10:02AM 30.0539 -96.8861 282° West 370 426 12,000 -780 Descending Houston Center
10:03AM 30.0864 -96.9928 289° West 357 411 11,900 -540 Descending Houston Center
10:04AM 30.1300 -97.0894 298° West 341 392 11,000 -1,140 Descending Houston Center
10:05AM 30.1772 -97.1703 304° West 305 351 9,600 -1,620 Descending Houston Center
10:06AM 30.2281 -97.2619 303° West 289 333 7,700 -1,740 Descending Houston Center
10:07AM 30.2703 -97.3383 303° West 281 323 6,000 -1,620 Descending Houston Center
10:08AM 30.3131 -97.4158 303° West 281 323 4,400 -1,020 Descending Houston Center
10:09AM 30.3550 -97.4919 303° West 279 321 3,900 -900 Descending Houston Center
10:10AM 30.3658 -97.5736 279° West 259 298 2,600 -720 Descending Houston Center
10:11AM 30.3700 -97.6508 274° West 240 276 2,500 -60 Descending Houston Center
10:12AM 30.3278 -97.6642 195° South 180 207 2,500  Level Houston Center